Saint Paul Island, Canada
Current Conditions -  °F | °C
As of 7:00 PM on Saturday 25 Oct 2014 (Local Time) from CWZB Reporting Station
Overcast Overcast  
Wind Chill: 41°   Ceiling: 1700
Heat Index: 47°   Visibility: 9mi
Dew Point: 43°   Wind: 13mph
Humidity: 87%   Direction: 80°E
Pressure: 29.48"   Gusts: NA
Location:  47.21°N, 60.14°W
Report Text: CWZB 252200Z AUTO 08011KT 9SM OVC017 08/06 A2948 RMK SLP984 T00810061 70004 WSI/SWOB
Loading
Personal Weather Stations






























Interactive Weather Map
Tropical Storm Tracking
New forecast layout! Learn more

10-Day Weather Forecast

Advertisements
Track Severe Weather on mobile